الصفحة الرئيسية
METAR-TAF:

METAR-TAF

مطار :

ييكاتيرينبرغ, روسيا

دائرة عرض: 56-50N, خط طول: 060-38E, ارتفاع: 237 متر

مراقبة الطقس الحالي

تاريخ ووقت الإصدار 36 دقيقة قبل الساعة 11:30UTC
ريح 17 عقدة من الشمال الغربي
درجة الحرارة 21°درجة مئوية
الرطوبة 53%
ضغط 1010 hPa
الرؤية 10 كم أو أكثر
غيوم متفرقة على ارتفاع 4000 قدم, مزنة ركامية.
عاصفة رعدية بالجوار

METAR: USSS 241130Z 31009MPS 9999 VCTS SCT040CB 21/11 Q1010 R26R/290037 R26L/090070 NOSIG RMK QFE737/0983

زمن: 17:06 (12:06 UTC)

توقعات

تاريخ ووقت الإصدار 1ساعة و 9 دقيقة قبل الساعة 10:57UTC
التوقعات صالحة من24 الساعة 12 UTC إلى 25 الساعة 12 UTC
ريح 17 عقدة من الغرب
الرؤية 10 كم أو أكثر
غيوم متفرقة على ارتفاع 1500 قدم
غيوم متفرقة على ارتفاع 2000 قدم, مزنة ركامية.
مؤقت
من 24 الساعة 12 UTC إلى 24 الساعة 17 UTC
ريح 39 عقدة من الغرب/الشمال الغربي
عاصفة رعدية, مطر خفيف, برَد
أصبح
من 24 الساعة 17 UTC إلى 24 الساعة 18 UTC
ريح 6 عقدة من الشمال/الشمال الغربي
الرؤية: 3100 متر
زخات من الأمطار الخفيفة, غشاء

TAF: USSS 241057Z 2412/2512 26009MPS 9999 SCT015 SCT020CB TEMPO 2412/2417 29020MPS -TSRAGR BECMG 2417/2418 34003MPS 3100 -SHRA BR

أرصاد الطقس والتوقعات من أكثر من 4000 مطار (تقارير الطقس للمطار METAR والتنبؤ بالطقس بالمطارTAF).

المحطات المتاحة هي النقط الصفراء والحمراء على الخريطة.

حرك المؤشر فوق النقطة لمعرفة اسم المحطة.

ثم انقر لمعرفة أرصاد وتوقعات الطقس.

لتغيير الخارطة: اضغط على الأزرار الخضراء مع رمز الصليب الأسود للتكبير. على الزر الأخضر مع شرطة للتصغير، أو على الأسهم الخضراء للخرائط المجاورة.


METAR-TAF: